Time;durP1;ratioP1;P1;durP2;ratioP2;P2;SDS_P1;SDS_P2;PMS_P1;PMS_P2;Temp;Humidity;BMP_temperature;BMP_pressure;BME280_temperature;BME280_humidity;BME280_pressure;Samples;Min_cycle;Max_cycle;Signal;HPM_P1;HPM_P2
2021/10/30 00:01:17;;;;;;;51.35;23.63;;;;;;;;;;8351072;28;20492;-69
2021/10/30 00:05:22;;;;;;;59.33;24.55;;;;;;;;;;8336801;28;20456;-68
2021/10/30 00:09:27;;;;;;;56.67;23.00;;;;;;;;;;8299182;28;20491;-70
2021/10/30 00:13:32;;;;;;;66.50;26.85;;;;;;;;;;8295111;28;20375;-69
2021/10/30 00:17:37;;;;;;;64.30;29.85;;;;;;;;;;8277956;28;20036;-69
2021/10/30 00:21:42;;;;;;;66.70;28.00;;;;;;;;;;8276930;28;20344;-68
2021/10/30 00:25:47;;;;;;;70.47;29.85;;;;;;;;;;8294099;28;20391;-69
2021/10/30 00:29:51;;;;;;;69.05;27.15;;;;;;;;;;8293394;28;20445;-69
2021/10/30 00:33:56;;;;;;;59.65;26.60;;;;;;;;;;8276695;28;20343;-68
2021/10/30 00:38:01;;;;;;;51.90;19.10;;;;;;;;;;8293246;28;20533;-68
2021/10/30 00:42:06;;;;;;;48.22;19.73;;;;;;;;;;8293141;28;20344;-69
2021/10/30 00:46:11;;;;;;;46.13;20.85;;;;;;;;;;8293643;28;20372;-69
2021/10/30 00:50:16;;;;;;;40.75;18.73;;;;;;;;;;8303417;28;20483;-69
2021/10/30 00:54:22;;;;;;;50.83;21.30;;;;;;;;;;8326720;28;20443;-68
2021/10/30 00:58:29;;;;;;;41.80;19.05;;;;;;;;;;8326161;28;20323;-68
2021/10/30 01:02:34;;;;;;;49.72;19.80;;;;;;;;;;8308919;28;20464;-69
2021/10/30 01:06:41;;;;;;;47.35;22.15;;;;;;;;;;8308142;28;20439;-69
2021/10/30 01:10:47;;;;;;;41.22;18.55;;;;;;;;;;8307802;28;20356;-69
2021/10/30 01:14:52;;;;;;;42.22;18.95;;;;;;;;;;8308411;28;20048;-69
2021/10/30 01:18:57;;;;;;;41.58;15.68;;;;;;;;;;8307501;28;20351;-69
2021/10/30 01:23:03;;;;;;;45.22;16.67;;;;;;;;;;8323995;28;20456;-69
2021/10/30 01:27:08;;;;;;;43.30;18.67;;;;;;;;;;8324806;28;20462;-70
2021/10/30 01:31:13;;;;;;;36.42;17.17;;;;;;;;;;8324798;28;20493;-68
2021/10/30 01:35:26;;;;;;;37.45;16.63;;;;;;;;;;8324656;28;20581;-69
2021/10/30 01:39:31;;;;;;;43.40;17.55;;;;;;;;;;8325173;28;20443;-68
2021/10/30 01:43:36;;;;;;;39.13;17.08;;;;;;;;;;8324768;28;20455;-70
2021/10/30 01:47:40;;;;;;;40.95;15.52;;;;;;;;;;8324901;28;20456;-69
2021/10/30 01:51:47;;;;;;;35.30;16.13;;;;;;;;;;8308373;28;20394;-69
2021/10/30 01:55:52;;;;;;;33.17;15.30;;;;;;;;;;8323925;28;20462;-69
2021/10/30 01:59:57;;;;;;;34.70;14.85;;;;;;;;;;8325234;28;20342;-69
2021/10/30 02:04:02;;;;;;;33.00;15.05;;;;;;;;;;8323676;28;20478;-69
2021/10/30 02:08:07;;;;;;;31.13;15.15;;;;;;;;;;8306433;28;20459;-70
2021/10/30 02:12:12;;;;;;;29.17;13.45;;;;;;;;;;8325732;28;20475;-70
2021/10/30 02:16:17;;;;;;;26.85;12.80;;;;;;;;;;8325562;28;20455;-69
2021/10/30 02:20:23;;;;;;;27.13;13.60;;;;;;;;;;8323755;28;20370;-69
2021/10/30 02:24:28;;;;;;;33.72;13.55;;;;;;;;;;8305502;28;20455;-68
2021/10/30 02:28:33;;;;;;;34.67;14.00;;;;;;;;;;8323375;28;20447;-69
2021/10/30 02:32:38;;;;;;;38.85;14.15;;;;;;;;;;8305758;28;20524;-69
2021/10/30 02:36:42;;;;;;;30.33;12.75;;;;;;;;;;8323317;28;20371;-69
2021/10/30 02:40:47;;;;;;;29.75;12.93;;;;;;;;;;8322621;28;20356;-69
2021/10/30 02:44:52;;;;;;;26.25;12.57;;;;;;;;;;8304736;28;20467;-70
2021/10/30 02:48:58;;;;;;;27.95;13.63;;;;;;;;;;8305098;28;20483;-69
2021/10/30 02:53:03;;;;;;;37.05;13.73;;;;;;;;;;8306002;28;20048;-69
2021/10/30 02:57:08;;;;;;;34.70;12.43;;;;;;;;;;8305373;28;20463;-69
2021/10/30 03:01:13;;;;;;;34.97;14.00;;;;;;;;;;8322709;28;20475;-69
2021/10/30 03:05:18;;;;;;;39.80;13.98;;;;;;;;;;8321818;28;20341;-70
2021/10/30 03:09:23;;;;;;;31.90;13.35;;;;;;;;;;8322251;28;20379;-70
2021/10/30 03:13:28;;;;;;;34.78;13.20;;;;;;;;;;8323046;28;20392;-68
2021/10/30 03:17:33;;;;;;;40.28;13.10;;;;;;;;;;8304705;28;20467;-69
2021/10/30 03:21:38;;;;;;;35.67;14.55;;;;;;;;;;8304113;28;20481;-69
2021/10/30 03:25:43;;;;;;;35.20;14.27;;;;;;;;;;8322458;28;20351;-69
2021/10/30 03:29:48;;;;;;;29.95;11.57;;;;;;;;;;8322200;28;20382;-69
2021/10/30 03:33:53;;;;;;;47.00;12.93;;;;;;;;;;8322178;28;20406;-69
2021/10/30 03:37:58;;;;;;;32.83;13.70;;;;;;;;;;8322464;28;20070;-68
2021/10/30 03:42:03;;;;;;;23.65;10.85;;;;;;;;;;8322928;28;20044;-69
2021/10/30 03:46:08;;;;;;;29.48;10.73;;;;;;;;;;8324683;28;20508;-70
2021/10/30 03:50:13;;;;;;;28.17;11.55;;;;;;;;;;8309768;28;20455;-69
2021/10/30 03:54:18;;;;;;;34.88;12.57;;;;;;;;;;8328293;28;20455;-69
2021/10/30 03:58:24;;;;;;;49.13;18.75;;;;;;;;;;8309893;28;20443;-70
2021/10/30 04:02:29;;;;;;;58.03;19.98;;;;;;;;;;8327631;28;20040;-70
2021/10/30 04:06:35;;;;;;;63.15;20.58;;;;;;;;;;8326920;28;20133;-68
2021/10/30 04:10:39;;;;;;;97.68;33.10;;;;;;;;;;8309332;28;20487;-69
2021/10/30 04:14:44;;;;;;;90.47;29.55;;;;;;;;;;8327815;28;20380;-69
2021/10/30 04:18:49;;;;;;;63.10;21.67;;;;;;;;;;8326836;28;20443;-69
2021/10/30 04:22:54;;;;;;;113.60;33.88;;;;;;;;;;8327437;28;20466;-68
2021/10/30 04:26:59;;;;;;;214.48;53.22;;;;;;;;;;8327099;28;20380;-69
2021/10/30 04:31:05;;;;;;;157.23;40.70;;;;;;;;;;8309393;28;20379;-69
2021/10/30 04:35:11;;;;;;;76.65;25.35;;;;;;;;;;8327217;28;20375;-69
2021/10/30 04:39:19;;;;;;;152.88;58.55;;;;;;;;;;8326955;28;20394;-69
2021/10/30 04:43:24;;;;;;;71.05;27.48;;;;;;;;;;8234842;28;20464;-69
2021/10/30 04:47:29;;;;;;;80.72;25.70;;;;;;;;;;8261177;28;20415;-69
2021/10/30 04:51:34;;;;;;;41.88;15.93;;;;;;;;;;8259800;28;20486;-69
2021/10/30 04:55:38;;;;;;;29.10;11.88;;;;;;;;;;8261428;28;20364;-68
2021/10/30 04:59:43;;;;;;;44.08;19.13;;;;;;;;;;8260297;28;20380;-68
2021/10/30 05:03:48;;;;;;;40.30;17.15;;;;;;;;;;8260417;28;20361;-68
2021/10/30 05:07:53;;;;;;;55.47;19.90;;;;;;;;;;8258501;28;20376;-69
2021/10/30 05:11:58;;;;;;;50.50;18.55;;;;;;;;;;8290987;28;20049;-69
2021/10/30 05:16:02;;;;;;;40.20;14.88;;;;;;;;;;8293240;28;20071;-70
2021/10/30 05:20:08;;;;;;;56.08;23.05;;;;;;;;;;8292279;28;20460;-69
2021/10/30 05:24:13;;;;;;;41.67;18.50;;;;;;;;;;8291510;28;20468;-69
2021/10/30 05:28:21;;;;;;;62.88;25.65;;;;;;;;;;8292305;28;20454;-69
2021/10/30 05:32:26;;;;;;;63.73;21.53;;;;;;;;;;8290387;28;20486;-68
2021/10/30 05:36:50;;;;;;;45.78;18.92;;;;;;;;;;8291894;28;20486;-69
2021/10/30 05:41:00;;;;;;;41.50;17.13;;;;;;;;;;8290261;28;20640;-69
2021/10/30 05:45:06;;;;;;;31.85;15.05;;;;;;;;;;8290064;28;20320;-69
2021/10/30 05:49:12;;;;;;;34.10;14.50;;;;;;;;;;8291175;28;20352;-69
2021/10/30 05:53:17;;;;;;;28.90;12.68;;;;;;;;;;8289365;28;20360;-69
2021/10/30 05:57:21;;;;;;;24.15;12.15;;;;;;;;;;8289420;28;20480;-69
2021/10/30 06:01:28;;;;;;;37.60;15.10;;;;;;;;;;8291818;28;20371;-68
2021/10/30 06:05:36;;;;;;;34.17;13.63;;;;;;;;;;8290833;28;20364;-68
2021/10/30 06:09:40;;;;;;;22.30;8.13;;;;;;;;;;8288372;28;20395;-69
2021/10/30 06:13:45;;;;;;;15.75;7.10;;;;;;;;;;8289303;28;20497;-70
2021/10/30 06:17:50;;;;;;;16.95;8.07;;;;;;;;;;8290414;28;20425;-69
2021/10/30 06:21:55;;;;;;;21.02;7.90;;;;;;;;;;8288592;28;20064;-69
2021/10/30 06:26:00;;;;;;;15.40;6.70;;;;;;;;;;8288282;28;20399;-69
2021/10/30 06:30:07;;;;;;;13.63;6.32;;;;;;;;;;8291640;28;20040;-69
2021/10/30 06:34:13;;;;;;;16.60;7.28;;;;;;;;;;8289493;28;20394;-69
2021/10/30 06:38:18;;;;;;;16.08;6.95;;;;;;;;;;8291117;28;20607;-70
2021/10/30 06:42:22;;;;;;;18.55;7.90;;;;;;;;;;8288649;28;20466;-70
2021/10/30 06:46:28;;;;;;;18.98;10.32;;;;;;;;;;8291759;28;20345;-69
2021/10/30 06:50:33;;;;;;;18.50;8.20;;;;;;;;;;8289941;28;20479;-70
2021/10/30 06:54:38;;;;;;;15.50;7.22;;;;;;;;;;8292092;28;20468;-70
2021/10/30 06:58:43;;;;;;;16.10;6.55;;;;;;;;;;8290123;28;20428;-70
2021/10/30 07:02:51;;;;;;;16.23;6.70;;;;;;;;;;8288613;28;20463;-71
2021/10/30 07:06:56;;;;;;;14.73;6.95;;;;;;;;;;8290259;28;20371;-70
2021/10/30 07:13:05;;;;;;;13.38;6.68;;;;;;;;;;8230509;27;21127;-69
2021/10/30 07:17:10;;;;;;;20.25;7.10;;;;;;;;;;8289648;28;20489;-71
2021/10/30 07:21:15;;;;;;;15.02;7.45;;;;;;;;;;8318084;28;20486;-69
2021/10/30 07:25:22;;;;;;;19.98;8.63;;;;;;;;;;8319758;28;20472;-69
2021/10/30 07:29:27;;;;;;;13.55;7.25;;;;;;;;;;8318653;28;20479;-69
2021/10/30 07:33:31;;;;;;;12.05;6.80;;;;;;;;;;8318340;28;20491;-69
2021/10/30 07:37:37;;;;;;;30.85;17.65;;;;;;;;;;8318169;28;20479;-69
2021/10/30 07:41:43;;;;;;;41.80;23.35;;;;;;;;;;8317324;28;20464;-69
2021/10/30 07:45:47;;;;;;;131.68;44.85;;;;;;;;;;8317462;28;20459;-70
2021/10/30 07:49:53;;;;;;;171.02;67.40;;;;;;;;;;8317955;28;20493;-68
2021/10/30 07:53:58;;;;;;;828.20;320.90;;;;;;;;;;8319109;28;20355;-70
2021/10/30 07:58:03;;;;;;;240.98;97.82;;;;;;;;;;8314463;28;20324;-69
2021/10/30 08:02:07;;;;;;;64.03;22.35;;;;;;;;;;8315643;28;20339;-70
2021/10/30 08:06:12;;;;;;;86.97;27.85;;;;;;;;;;8317800;28;20336;-70
2021/10/30 08:10:17;;;;;;;272.67;77.30;;;;;;;;;;8316267;28;20452;-71
2021/10/30 08:14:23;;;;;;;314.48;100.63;;;;;;;;;;8317172;28;20063;-70
2021/10/30 08:18:26;;;;;;;144.82;49.22;;;;;;;;;;8316630;28;20367;-70
2021/10/30 08:22:32;;;;;;;109.65;44.50;;;;;;;;;;8305379;28;20056;-69
2021/10/30 08:26:37;;;;;;;71.13;33.97;;;;;;;;;;8287520;28;20363;-70
2021/10/30 08:30:40;;;;;;;190.55;73.93;;;;;;;;;;8285728;28;20379;-69
2021/10/30 08:34:45;;;;;;;192.32;70.97;;;;;;;;;;8292915;28;20045;-71
2021/10/30 08:38:50;;;;;;;60.80;24.17;;;;;;;;;;8291412;28;20428;-71
2021/10/30 08:42:55;;;;;;;65.90;24.15;;;;;;;;;;8291207;28;20467;-72
2021/10/30 08:47:00;;;;;;;89.70;30.38;;;;;;;;;;8292237;28;20372;-70
2021/10/30 08:51:05;;;;;;;100.30;37.88;;;;;;;;;;8283872;28;20364;-70
2021/10/30 08:55:10;;;;;;;38.65;17.05;;;;;;;;;;8280964;28;20472;-69
2021/10/30 08:59:16;;;;;;;14.95;6.60;;;;;;;;;;8285284;28;20376;-69
2021/10/30 09:03:22;;;;;;;31.27;13.55;;;;;;;;;;8287803;28;20352;-70
2021/10/30 09:07:26;;;;;;;58.00;26.58;;;;;;;;;;8289442;28;20348;-69
2021/10/30 09:11:33;;;;;;;85.40;34.97;;;;;;;;;;8293218;28;20475;-70
2021/10/30 09:15:39;;;;;;;52.88;26.00;;;;;;;;;;8295132;28;20476;-69
2021/10/30 09:19:53;;;;;;;30.88;15.60;;;;;;;;;;8292797;28;20476;-71
2021/10/30 09:23:59;;;;;;;11.63;5.95;;;;;;;;;;8295216;28;20443;-69
2021/10/30 09:28:04;;;;;;;11.50;6.20;;;;;;;;;;8292236;28;20447;-70
2021/10/30 09:32:15;;;;;;;26.30;8.07;;;;;;;;;;8293592;28;20463;-69
2021/10/30 09:36:28;;;;;;;61.28;28.42;;;;;;;;;;8291828;28;20451;-69
2021/10/30 09:40:34;;;;;;;285.38;102.72;;;;;;;;;;8293198;28;20414;-70
2021/10/30 09:44:40;;;;;;;108.50;32.15;;;;;;;;;;8293693;28;20363;-70
2021/10/30 09:48:43;;;;;;;132.27;39.83;;;;;;;;;;8292900;28;20037;-71
2021/10/30 09:52:48;;;;;;;9.05;3.50;;;;;;;;;;8292184;28;20348;-69
2021/10/30 09:56:53;;;;;;;47.10;16.60;;;;;;;;;;8292749;28;20075;-70
2021/10/30 10:01:05;;;;;;;11.55;4.82;;;;;;;;;;8214021;28;20386;-72
2021/10/30 10:05:10;;;;;;;39.15;15.93;;;;;;;;;;8293565;28;20341;-70
2021/10/30 10:09:19;;;;;;;26.65;10.73;;;;;;;;;;8291468;28;20495;-69
2021/10/30 10:13:23;;;;;;;5.38;2.58;;;;;;;;;;8291532;28;20364;-71
2021/10/30 10:17:29;;;;;;;3.10;1.65;;;;;;;;;;8292472;28;20490;-69
2021/10/30 10:21:40;;;;;;;3.35;1.70;;;;;;;;;;8290769;28;20459;-69
2021/10/30 10:25:50;;;;;;;5.05;2.30;;;;;;;;;;8290871;28;20470;-70
2021/10/30 10:29:56;;;;;;;3.58;2.17;;;;;;;;;;8289861;28;20372;-69
2021/10/30 10:34:20;;;;;;;4.20;1.97;;;;;;;;;;8292093;28;20348;-70
2021/10/30 10:38:53;;;;;;;7.22;2.30;;;;;;;;;;8291081;28;20759;-69
2021/10/30 10:42:59;;;;;;;6.93;2.53;;;;;;;;;;8290872;28;20460;-71
2021/10/30 10:47:05;;;;;;;5.55;2.22;;;;;;;;;;8291363;28;20444;-70
2021/10/30 10:51:22;;;;;;;3.50;2.33;;;;;;;;;;8289820;28;20341;-70
2021/10/30 10:55:31;;;;;;;7.22;2.00;;;;;;;;;;8291153;28;20471;-70
2021/10/30 10:59:42;;;;;;;4.80;2.67;;;;;;;;;;8289961;28;20379;-71
2021/10/30 11:03:47;;;;;;;5.82;2.42;;;;;;;;;;8290879;28;20455;-71
2021/10/30 11:07:52;;;;;;;4.55;2.10;;;;;;;;;;8291148;28;20341;-72
2021/10/30 11:12:21;;;;;;;5.03;2.50;;;;;;;;;;8290372;28;20345;-71
2021/10/30 11:16:37;;;;;;;5.05;2.58;;;;;;;;;;8289423;28;20435;-70
2021/10/30 11:20:45;;;;;;;6.23;2.43;;;;;;;;;;8274080;28;20463;-71
2021/10/30 11:24:56;;;;;;;4.45;2.20;;;;;;;;;;8290150;28;20490;-70
2021/10/30 11:29:11;;;;;;;4.88;2.65;;;;;;;;;;8290628;28;20479;-70
2021/10/30 11:33:24;;;;;;;5.38;2.60;;;;;;;;;;8288622;28;20351;-70
2021/10/30 11:37:40;;;;;;;4.18;2.20;;;;;;;;;;8290766;28;20448;-70
2021/10/30 11:41:45;;;;;;;7.28;2.40;;;;;;;;;;8289449;28;20379;-71
2021/10/30 11:45:50;;;;;;;5.13;2.78;;;;;;;;;;8289747;28;20075;-69
2021/10/30 11:49:55;;;;;;;6.20;2.70;;;;;;;;;;8290751;28;20375;-69
2021/10/30 11:54:01;;;;;;;4.57;2.25;;;;;;;;;;8288371;28;20045;-69
2021/10/30 11:58:06;;;;;;;5.77;3.03;;;;;;;;;;8291775;28;20460;-69
2021/10/30 12:02:16;;;;;;;4.18;2.30;;;;;;;;;;8294488;28;20475;-69
2021/10/30 12:06:21;;;;;;;3.97;2.10;;;;;;;;;;8294717;28;20371;-68
2021/10/30 12:10:25;;;;;;;5.80;3.25;;;;;;;;;;8296044;28;20462;-69
2021/10/30 12:14:34;;;;;;;6.95;2.70;;;;;;;;;;8296812;28;20359;-70
2021/10/30 12:18:39;;;;;;;16.92;6.20;;;;;;;;;;8297309;28;20479;-70
2021/10/30 12:22:45;;;;;;;8.77;2.90;;;;;;;;;;8295823;28;20480;-70
2021/10/30 12:27:02;;;;;;;6.70;2.50;;;;;;;;;;8295085;28;20339;-69
2021/10/30 12:31:07;;;;;;;7.20;3.03;;;;;;;;;;8295617;28;20349;-71
2021/10/30 12:35:24;;;;;;;12.40;4.78;;;;;;;;;;8294751;28;20491;-70
2021/10/30 12:39:29;;;;;;;5.35;3.03;;;;;;;;;;8294167;28;20451;-71
2021/10/30 12:43:37;;;;;;;6.90;2.88;;;;;;;;;;8294713;28;20067;-70
2021/10/30 12:47:42;;;;;;;5.45;3.17;;;;;;;;;;8295043;28;20440;-69
2021/10/30 12:51:58;;;;;;;5.82;2.95;;;;;;;;;;8292527;28;20472;-70
2021/10/30 12:56:11;;;;;;;6.47;3.13;;;;;;;;;;8294014;28;20444;-70
2021/10/30 13:00:16;;;;;;;7.75;4.25;;;;;;;;;;8294745;28;20368;-69
2021/10/30 13:04:36;;;;;;;5.93;3.33;;;;;;;;;;8293129;28;20475;-69
2021/10/30 13:08:52;;;;;;;17.48;6.95;;;;;;;;;;8297075;28;20106;-69
2021/10/30 13:12:57;;;;;;;5.57;3.28;;;;;;;;;;8309407;28;20455;-69
2021/10/30 13:17:03;;;;;;;6.53;2.88;;;;;;;;;;8292434;28;20482;-70
2021/10/30 13:21:15;;;;;;;8.07;2.30;;;;;;;;;;8295016;28;20351;-71
2021/10/30 13:25:20;;;;;;;8.07;2.70;;;;;;;;;;8292220;28;20371;-70
2021/10/30 13:29:26;;;;;;;11.55;2.63;;;;;;;;;;8291883;28;20491;-70
2021/10/30 13:33:30;;;;;;;8.80;3.30;;;;;;;;;;8293142;28;20402;-70
2021/10/30 13:37:35;;;;;;;6.40;2.60;;;;;;;;;;8291704;28;20459;-69
2021/10/30 13:41:40;;;;;;;7.15;2.90;;;;;;;;;;8293110;28;20336;-70
2021/10/30 13:45:45;;;;;;;7.75;3.20;;;;;;;;;;8275266;28;20487;-71
2021/10/30 13:49:50;;;;;;;9.23;4.63;;;;;;;;;;8292210;28;20505;-70
2021/10/30 13:53:57;;;;;;;10.57;3.72;;;;;;;;;;8292314;28;20494;-69
2021/10/30 13:59:43;;;;;;;8.13;3.63;;;;;;;;;;8184133;28;1622729;-69
2021/10/30 14:03:49;;;;;;;5.70;3.35;;;;;;;;;;8267046;28;20354;-69
2021/10/30 14:07:54;;;;;;;7.32;3.63;;;;;;;;;;8254534;28;20480;-68
2021/10/30 14:11:59;;;;;;;62.55;22.60;;;;;;;;;;8252719;28;20453;-69
2021/10/30 14:16:06;;;;;;;37.83;16.00;;;;;;;;;;8254611;28;20457;-69
2021/10/30 14:20:12;;;;;;;39.58;17.38;;;;;;;;;;8189686;28;20381;-69
2021/10/30 14:24:18;;;;;;;26.80;12.38;;;;;;;;;;8253586;28;20049;-68
2021/10/30 14:28:23;;;;;;;27.38;11.55;;;;;;;;;;8254238;28;20476;-68
2021/10/30 14:32:28;;;;;;;16.58;6.90;;;;;;;;;;8250894;28;20115;-70
2021/10/30 14:36:33;;;;;;;54.03;23.35;;;;;;;;;;8251281;28;20345;-68
2021/10/30 14:40:40;;;;;;;62.10;28.95;;;;;;;;;;8252739;28;20476;-68
2021/10/30 14:44:46;;;;;;;62.35;27.52;;;;;;;;;;8252393;28;20476;-68
2021/10/30 14:48:51;;;;;;;80.53;34.03;;;;;;;;;;8252593;28;20372;-69
2021/10/30 14:52:55;;;;;;;9.80;4.60;;;;;;;;;;8252243;28;20053;-70
2021/10/30 14:57:00;;;;;;;6.80;3.33;;;;;;;;;;8273358;28;20353;-68
2021/10/30 15:01:05;;;;;;;8.48;3.63;;;;;;;;;;8317313;28;20462;-68
2021/10/30 15:05:11;;;;;;;12.43;5.65;;;;;;;;;;8317739;28;20456;-68
2021/10/30 15:09:15;;;;;;;12.77;2.97;;;;;;;;;;8305757;28;20355;-69
2021/10/30 15:13:20;;;;;;;5.38;2.80;;;;;;;;;;8277973;28;20360;-69
2021/10/30 15:17:25;;;;;;;36.30;16.08;;;;;;;;;;8295105;28;20501;-68
2021/10/30 15:21:30;;;;;;;16.33;7.28;;;;;;;;;;8297253;28;20351;-68
2021/10/30 15:25:35;;;;;;;22.95;7.03;;;;;;;;;;8294456;28;20060;-69
2021/10/30 15:29:40;;;;;;;38.47;15.13;;;;;;;;;;8278462;28;20357;-68
2021/10/30 15:33:46;;;;;;;18.50;6.35;;;;;;;;;;8295441;28;20472;-68
2021/10/30 15:37:51;;;;;;;16.73;5.55;;;;;;;;;;8277887;28;20386;-69
2021/10/30 15:41:56;;;;;;;90.60;31.75;;;;;;;;;;8294512;28;20403;-68
2021/10/30 15:46:01;;;;;;;87.88;30.60;;;;;;;;;;8277643;28;20510;-69
2021/10/30 15:50:06;;;;;;;51.38;19.98;;;;;;;;;;8296515;28;20464;-70
2021/10/30 15:54:11;;;;;;;126.05;34.58;;;;;;;;;;8295921;28;20481;-69
2021/10/30 15:58:16;;;;;;;134.88;57.00;;;;;;;;;;8293328;28;20087;-70
2021/10/30 16:02:21;;;;;;;93.43;42.80;;;;;;;;;;8291706;28;20391;-69
2021/10/30 16:06:25;;;;;;;111.10;50.17;;;;;;;;;;8273415;28;20415;-69
2021/10/30 16:10:28;;;;;;;68.72;32.13;;;;;;;;;;8266227;28;20483;-70
2021/10/30 16:14:33;;;;;;;51.60;23.92;;;;;;;;;;8282443;28;20345;-70
2021/10/30 16:18:37;;;;;;;40.50;17.70;;;;;;;;;;8279450;28;21046;-70
2021/10/30 16:22:41;;;;;;;47.42;17.55;;;;;;;;;;8283165;28;20347;-69
2021/10/30 16:26:45;;;;;;;41.65;16.95;;;;;;;;;;8277991;28;20538;-69
2021/10/30 16:30:52;;;;;;;36.40;16.00;;;;;;;;;;8259180;28;20053;-69
2021/10/30 16:34:57;;;;;;;42.08;17.00;;;;;;;;;;8269592;28;20490;-69
2021/10/30 16:39:04;;;;;;;37.13;16.48;;;;;;;;;;8282612;28;20472;-69
2021/10/30 16:43:10;;;;;;;55.72;20.95;;;;;;;;;;8279444;28;20451;-69
2021/10/30 16:47:16;;;;;;;77.35;30.05;;;;;;;;;;8290669;28;20359;-69
2021/10/30 16:51:21;;;;;;;87.68;32.47;;;;;;;;;;8272260;28;20474;-70
2021/10/30 16:55:28;;;;;;;113.18;36.88;;;;;;;;;;8267386;28;20353;-69
2021/10/30 16:59:33;;;;;;;114.50;36.35;;;;;;;;;;8282275;28;20460;-69
2021/10/30 17:03:37;;;;;;;121.75;38.50;;;;;;;;;;8268626;28;20032;-69
2021/10/30 17:07:41;;;;;;;111.75;27.70;;;;;;;;;;8265147;28;20436;-71
2021/10/30 17:11:44;;;;;;;24.70;10.25;;;;;;;;;;8287790;28;20460;-70
2021/10/30 17:15:49;;;;;;;47.35;16.90;;;;;;;;;;8291500;28;20321;-70
2021/10/30 17:19:52;;;;;;;62.92;19.42;;;;;;;;;;8288914;28;20439;-70
2021/10/30 17:23:57;;;;;;;27.52;11.07;;;;;;;;;;8288581;28;20472;-70
2021/10/30 17:28:00;;;;;;;44.75;18.08;;;;;;;;;;8287705;28;20044;-67
2021/10/30 17:32:06;;;;;;;103.45;33.42;;;;;;;;;;8287882;28;20505;-70
2021/10/30 17:36:12;;;;;;;99.78;28.55;;;;;;;;;;8283249;28;20357;-71
2021/10/30 17:40:17;;;;;;;100.75;31.35;;;;;;;;;;8283434;28;20460;-71
2021/10/30 17:44:22;;;;;;;174.18;46.40;;;;;;;;;;8282810;28;20371;-69
2021/10/30 17:48:26;;;;;;;101.30;31.02;;;;;;;;;;8281651;28;20371;-70
2021/10/30 17:52:32;;;;;;;66.47;23.80;;;;;;;;;;8265261;28;20395;-70
2021/10/30 17:56:35;;;;;;;82.93;33.13;;;;;;;;;;8285178;28;20406;-69
2021/10/30 18:00:44;;;;;;;117.05;45.30;;;;;;;;;;8270343;28;20337;-70
2021/10/30 18:04:49;;;;;;;102.15;37.58;;;;;;;;;;8286693;28;20367;-70
2021/10/30 18:08:53;;;;;;;82.82;31.38;;;;;;;;;;8285819;28;20472;-70
2021/10/30 18:13:00;;;;;;;123.75;45.50;;;;;;;;;;8280068;28;20823;-71
2021/10/30 18:17:04;;;;;;;314.33;74.93;;;;;;;;;;8267951;28;20332;-71
2021/10/30 18:21:09;;;;;;;396.55;98.32;;;;;;;;;;8285275;28;20074;-70
2021/10/30 18:25:14;;;;;;;501.75;133.68;;;;;;;;;;8268248;28;20048;-69
2021/10/30 18:29:18;;;;;;;414.17;96.82;;;;;;;;;;8268449;28;20462;-70
2021/10/30 18:33:23;;;;;;;426.40;97.20;;;;;;;;;;8286849;28;20371;-70
2021/10/30 18:37:29;;;;;;;165.25;46.00;;;;;;;;;;8288927;28;20370;-70
2021/10/30 18:41:35;;;;;;;61.03;24.13;;;;;;;;;;8290924;28;20467;-70
2021/10/30 18:45:39;;;;;;;55.20;21.20;;;;;;;;;;8294030;28;20517;-70
2021/10/30 18:49:44;;;;;;;54.65;20.23;;;;;;;;;;8264694;28;20493;-69
2021/10/30 18:53:48;;;;;;;71.88;23.25;;;;;;;;;;8292680;28;20483;-68
2021/10/30 18:57:52;;;;;;;54.80;21.98;;;;;;;;;;8293509;28;20378;-69
2021/10/30 19:01:56;;;;;;;82.22;27.45;;;;;;;;;;8290897;28;20451;-68
2021/10/30 19:06:04;;;;;;;67.22;24.65;;;;;;;;;;8292460;28;20498;-69
2021/10/30 19:10:12;;;;;;;63.03;20.08;;;;;;;;;;8293768;28;20348;-69
2021/10/30 19:14:17;;;;;;;;;;;;;;;;;;8293402;28;20472;-69
2021/10/30 19:18:22;;;;;;;35.80;12.65;;;;;;;;;;8270731;28;20248;-68
2021/10/30 19:22:28;;;;;;;45.53;14.10;;;;;;;;;;8294047;28;20348;-68
2021/10/30 19:26:34;;;;;;;42.78;15.82;;;;;;;;;;8291698;28;20383;-68
2021/10/30 19:30:38;;;;;;;54.35;21.05;;;;;;;;;;8276294;28;20360;-70
2021/10/30 19:34:44;;;;;;;47.22;17.60;;;;;;;;;;8291712;28;20467;-69
2021/10/30 19:39:57;;;;;;;41.78;14.27;;;;;;;;;;8285969;28;20594;-69
2021/10/30 19:44:02;;;;;;;29.33;11.57;;;;;;;;;;8260763;28;20322;-69
2021/10/30 19:48:10;;;;;;;20.10;8.30;;;;;;;;;;8259895;28;20367;-69
2021/10/30 19:52:15;;;;;;;20.65;9.50;;;;;;;;;;8259388;28;20367;-69
2021/10/30 19:56:23;;;;;;;24.27;9.55;;;;;;;;;;8260407;28;20376;-69
2021/10/30 20:00:28;;;;;;;25.42;8.40;;;;;;;;;;8259038;28;20487;-69
2021/10/30 20:04:32;;;;;;;23.02;9.55;;;;;;;;;;8284492;28;20390;-69
2021/10/30 20:08:36;;;;;;;24.40;10.98;;;;;;;;;;8286587;28;20325;-70
2021/10/30 20:12:41;;;;;;;27.10;11.77;;;;;;;;;;8269951;28;20364;-69
2021/10/30 20:16:47;;;;;;;27.30;10.85;;;;;;;;;;8291094;28;20463;-69
2021/10/30 20:20:52;;;;;;;31.90;11.25;;;;;;;;;;8272319;28;20483;-69
2021/10/30 20:24:58;;;;;;;24.95;10.10;;;;;;;;;;8289304;28;20398;-70
2021/10/30 20:29:04;;;;;;;33.88;11.68;;;;;;;;;;8291223;28;20519;-69
2021/10/30 20:33:25;;;;;;;74.57;27.08;;;;;;;;;;8289152;28;20427;-69
2021/10/30 20:38:57;;;;;;;53.55;19.00;;;;;;;;;;8272325;27;2057818;-69
2021/10/30 20:43:02;;;;;;;282.80;76.28;;;;;;;;;;8299294;28;20344;-69
2021/10/30 20:47:08;;;;;;;132.93;37.25;;;;;;;;;;8300941;28;20390;-71
2021/10/30 20:51:13;;;;;;;81.95;27.02;;;;;;;;;;8298532;28;20474;-70
2021/10/30 20:55:17;;;;;;;83.57;25.58;;;;;;;;;;8299036;28;20394;-69
2021/10/30 20:59:23;;;;;;;194.95;41.20;;;;;;;;;;8301156;28;20379;-69
2021/10/30 21:03:30;;;;;;;29.10;10.77;;;;;;;;;;8300705;28;20463;-69
2021/10/30 21:07:35;;;;;;;334.20;94.80;;;;;;;;;;8302248;28;20489;-70
2021/10/30 21:11:41;;;;;;;169.20;54.35;;;;;;;;;;8302249;28;20509;-69
2021/10/30 21:15:45;;;;;;;80.50;25.38;;;;;;;;;;8304834;28;20379;-70
2021/10/30 21:19:51;;;;;;;77.65;21.70;;;;;;;;;;8302098;28;20360;-69
2021/10/30 21:23:56;;;;;;;39.58;13.75;;;;;;;;;;8298073;28;20440;-69
2021/10/30 21:28:01;;;;;;;83.00;20.73;;;;;;;;;;8302528;28;20382;-69
2021/10/30 21:32:07;;;;;;;46.20;14.52;;;;;;;;;;8304679;28;20041;-69
2021/10/30 21:36:11;;;;;;;131.68;45.75;;;;;;;;;;8289356;28;20517;-70
2021/10/30 21:40:15;;;;;;;86.13;32.00;;;;;;;;;;8264845;28;20058;-70
2021/10/30 21:44:19;;;;;;;82.13;25.50;;;;;;;;;;8203129;28;20595;-70
2021/10/30 21:48:23;;;;;;;53.85;18.65;;;;;;;;;;8221414;28;20472;-69
2021/10/30 21:52:28;;;;;;;42.90;17.27;;;;;;;;;;8180349;28;20349;-68
2021/10/30 21:56:32;;;;;;;55.22;18.58;;;;;;;;;;8176270;28;20038;-68
2021/10/30 22:01:01;;;;;;;51.65;20.00;;;;;;;;;;8181583;28;20372;-68
2021/10/30 22:05:05;;;;;;;129.43;32.70;;;;;;;;;;8171804;28;20765;-70
2021/10/30 22:09:09;;;;;;;230.45;60.75;;;;;;;;;;8172928;28;20418;-69
2021/10/30 22:13:13;;;;;;;83.95;25.85;;;;;;;;;;8178285;28;20552;-69
2021/10/30 22:17:17;;;;;;;51.97;16.70;;;;;;;;;;8169905;28;20405;-69
2021/10/30 22:21:21;;;;;;;42.45;14.85;;;;;;;;;;8190685;28;20054;-69
2021/10/30 22:25:25;;;;;;;45.03;15.02;;;;;;;;;;8190444;28;20388;-68
2021/10/30 22:29:29;;;;;;;77.85;24.05;;;;;;;;;;8190156;28;20484;-69
2021/10/30 22:33:33;;;;;;;62.63;24.05;;;;;;;;;;8168751;28;20370;-69
2021/10/30 22:37:38;;;;;;;37.25;14.80;;;;;;;;;;8177070;28;20695;-69
2021/10/30 22:41:44;;;;;;;19.88;8.88;;;;;;;;;;8178818;28;20477;-68
2021/10/30 22:45:49;;;;;;;34.50;12.95;;;;;;;;;;8179071;28;20335;-68
2021/10/30 22:49:54;;;;;;;144.68;48.28;;;;;;;;;;8177583;28;20381;-69
2021/10/30 22:53:58;;;;;;;74.68;24.08;;;;;;;;;;8175810;28;20046;-70
2021/10/30 22:58:05;;;;;;;163.48;43.90;;;;;;;;;;8179801;28;20362;-68
2021/10/30 23:02:14;;;;;;;72.00;20.48;;;;;;;;;;8179999;28;20385;-69
2021/10/30 23:06:18;;;;;;;23.67;7.50;;;;;;;;;;8177062;28;20388;-69
2021/10/30 23:10:22;;;;;;;13.93;5.78;;;;;;;;;;8178625;28;20069;-68
2021/10/30 23:14:26;;;;;;;37.72;10.77;;;;;;;;;;8178946;28;20408;-70
2021/10/30 23:18:31;;;;;;;52.80;15.00;;;;;;;;;;8176460;28;20450;-69
2021/10/30 23:22:37;;;;;;;26.13;10.15;;;;;;;;;;8175716;28;20368;-69
2021/10/30 23:26:41;;;;;;;33.05;11.55;;;;;;;;;;8178471;28;20323;-69
2021/10/30 23:30:47;;;;;;;20.75;9.18;;;;;;;;;;8175270;28;20465;-69
2021/10/30 23:34:52;;;;;;;28.85;9.68;;;;;;;;;;8173290;28;20354;-68
2021/10/30 23:38:56;;;;;;;30.20;9.23;;;;;;;;;;8175352;28;20492;-69
2021/10/30 23:43:01;;;;;;;31.90;10.93;;;;;;;;;;8174739;28;20041;-69
2021/10/30 23:47:05;;;;;;;39.50;10.63;;;;;;;;;;8176256;28;20045;-69
2021/10/30 23:51:09;;;;;;;29.73;10.05;;;;;;;;;;8178586;28;20390;-70
2021/10/30 23:55:13;;;;;;;25.35;9.65;;;;;;;;;;8176231;28;20369;-69
2021/10/30 23:59:17;;;;;;;27.42;11.43;;;;;;;;;;8177624;28;20480;-69
